createdAt,value
2023-03-15T00:00:33.803Z,8.85
2023-03-15T00:02:42.190Z,8.9
2023-03-15T00:04:47.693Z,8.87
2023-03-15T00:06:52.727Z,8.9
2023-03-15T00:08:58.536Z,8.85
2023-03-15T00:11:04.109Z,8.94
2023-03-15T00:13:09.610Z,8.94
2023-03-15T00:15:15.879Z,8.98
2023-03-15T00:17:21.330Z,9.03
2023-03-15T00:19:26.579Z,9.02
2023-03-15T00:21:32.095Z,9.04
2023-03-15T00:23:37.514Z,9.05
2023-03-15T00:25:43.131Z,9.07
2023-03-15T00:27:48.508Z,9.06
2023-03-15T00:29:54.126Z,9.07
2023-03-15T00:31:59.356Z,9.07
2023-03-15T00:34:04.261Z,9.07
2023-03-15T00:36:09.479Z,9.08
2023-03-15T00:38:15.330Z,9.06
2023-03-15T00:40:20.742Z,8.92
2023-03-15T00:42:26.109Z,8.67
2023-03-15T00:44:32.648Z,8.13
2023-03-15T00:46:38.208Z,7.5
2023-03-15T00:48:44.025Z,7.01
2023-03-15T00:50:49.366Z,6.61
2023-03-15T00:52:55.228Z,6.3
2023-03-15T00:55:00.851Z,6.13
2023-03-15T00:57:06.932Z,6.07
2023-03-15T00:59:12.415Z,5.96
2023-03-15T01:01:17.865Z,5.92
2023-03-15T01:03:23.554Z,5.88
2023-03-15T01:05:28.877Z,5.74
2023-03-15T01:07:34.187Z,5.48
2023-03-15T01:09:40.759Z,5.22
2023-03-15T01:11:47.819Z,5.11
2023-03-15T01:13:54.801Z,4.92
2023-03-15T01:16:00.382Z,4.77
2023-03-15T01:18:06.245Z,4.69
2023-03-15T01:20:11.910Z,4.56
2023-03-15T01:22:18.462Z,4.51
2023-03-15T01:24:23.598Z,4.36
2023-03-15T01:26:29.398Z,4.24
2023-03-15T01:28:35.092Z,4.19
2023-03-15T01:30:41.489Z,4.1
2023-03-15T01:32:47.197Z,4.07
2023-03-15T01:34:52.852Z,3.99
2023-03-15T01:36:58.446Z,3.87
2023-03-15T01:39:03.656Z,3.79
2023-03-15T01:41:09.011Z,3.75
2023-03-15T01:43:14.433Z,3.62
2023-03-15T01:45:19.791Z,3.61
2023-03-15T01:47:25.452Z,3.62
2023-03-15T01:49:31.133Z,3.62
2023-03-15T01:51:36.912Z,3.61
2023-03-15T01:53:42.049Z,3.63
2023-03-15T01:55:47.469Z,3.63
2023-03-15T01:57:52.978Z,3.61
2023-03-15T01:59:59.330Z,3.61
2023-03-15T02:02:04.645Z,3.6
2023-03-15T02:04:10.131Z,3.62
2023-03-15T02:06:15.801Z,3.61
2023-03-15T02:08:21.613Z,3.62
2023-03-15T02:10:27.321Z,3.63
2023-03-15T02:12:32.512Z,3.63
2023-03-15T02:14:38.048Z,3.62
2023-03-15T02:16:43.825Z,3.64
2023-03-15T02:18:49.525Z,3.58
2023-03-15T02:20:54.940Z,3.58
2023-03-15T02:23:01.063Z,3.56
2023-03-15T02:25:06.467Z,3.55
2023-03-15T02:27:12.162Z,3.5
2023-03-15T02:29:19.443Z,3.48
2023-03-15T02:31:25.104Z,3.43
2023-03-15T02:33:30.546Z,3.39
2023-03-15T02:35:35.988Z,3.37
2023-03-15T02:37:41.882Z,3.35
2023-03-15T02:39:47.152Z,3.25
2023-03-15T02:41:52.377Z,3.27
2023-03-15T02:43:57.817Z,3.25
2023-03-15T02:46:08.555Z,3.23
2023-03-15T02:48:14.152Z,3.21
2023-03-15T02:50:19.775Z,3.19
2023-03-15T02:52:25.316Z,3.16
2023-03-15T02:54:30.734Z,3.15
2023-03-15T02:56:36.141Z,3.16
2023-03-15T02:58:42.614Z,3.16
2023-03-15T03:00:47.894Z,3.16
2023-03-15T03:02:53.246Z,3.12
2023-03-15T03:04:58.690Z,3.11
2023-03-15T03:07:04.046Z,3.11
2023-03-15T03:09:09.217Z,3.13
2023-03-15T03:11:15.174Z,3.12
2023-03-15T03:13:20.751Z,3.12
2023-03-15T03:15:26.300Z,3.1
2023-03-15T03:17:31.986Z,3.09
2023-03-15T03:19:37.074Z,3.1
2023-03-15T03:21:42.451Z,3.13
2023-03-15T03:23:47.684Z,3.16
2023-03-15T03:25:53.165Z,3.18
2023-03-15T03:27:58.542Z,3.18
2023-03-15T03:30:03.979Z,3.19
2023-03-15T03:32:09.212Z,3.19
2023-03-15T03:34:14.536Z,3.2
2023-03-15T03:36:19.883Z,3.2
2023-03-15T03:38:25.099Z,3.22
2023-03-15T03:40:30.538Z,3.25
2023-03-15T03:42:36.278Z,3.25
2023-03-15T03:44:42.223Z,3.22
2023-03-15T03:46:47.530Z,3.18
2023-03-15T03:48:53.689Z,3.14
2023-03-15T03:50:59.275Z,3.1
2023-03-15T03:53:04.861Z,3.07
2023-03-15T03:55:09.987Z,3.06
2023-03-15T03:57:15.779Z,2.99
2023-03-15T03:59:21.597Z,2.99
2023-03-15T04:01:27.070Z,3.01
2023-03-15T04:03:32.793Z,2.98
2023-03-15T04:05:38.400Z,2.98
2023-03-15T04:07:43.804Z,2.96
2023-03-15T04:09:49.159Z,2.94
2023-03-15T04:11:55.473Z,2.95
2023-03-15T04:14:01.206Z,2.94
2023-03-15T04:16:06.848Z,2.93
2023-03-15T04:18:12.412Z,2.95
2023-03-15T04:20:17.564Z,2.93
2023-03-15T04:22:22.955Z,2.92
2023-03-15T04:24:28.187Z,2.92
2023-03-15T04:26:33.645Z,2.93
2023-03-15T04:28:39.460Z,2.92
2023-03-15T04:30:44.916Z,2.94
2023-03-15T04:32:50.693Z,2.94
2023-03-15T04:34:56.182Z,2.93
2023-03-15T04:37:01.911Z,2.92
2023-03-15T04:39:07.784Z,2.88
2023-03-15T04:41:12.972Z,2.88
2023-03-15T04:43:18.554Z,2.88
2023-03-15T04:45:24.042Z,2.91
2023-03-15T04:47:29.767Z,2.91
2023-03-15T04:49:35.220Z,2.89
2023-03-15T04:51:40.932Z,2.89
2023-03-15T04:53:46.502Z,2.88
2023-03-15T04:55:51.704Z,2.88
2023-03-15T04:57:57.173Z,2.89
2023-03-15T05:00:02.688Z,2.86
2023-03-15T05:02:08.387Z,2.87
2023-03-15T05:04:13.931Z,2.85
2023-03-15T05:06:19.375Z,2.88
2023-03-15T05:08:28.044Z,2.86
2023-03-15T05:10:34.081Z,2.88
2023-03-15T05:12:39.558Z,2.88
2023-03-15T05:14:45.199Z,2.88
2023-03-15T05:16:50.944Z,2.86
2023-03-15T05:18:56.427Z,2.86
2023-03-15T05:21:02.214Z,2.83
2023-03-15T05:23:07.682Z,2.83
2023-03-15T05:25:13.261Z,2.82
2023-03-15T05:27:19.288Z,2.78
2023-03-15T05:29:25.348Z,2.77
2023-03-15T05:31:31.436Z,2.77
2023-03-15T05:33:37.562Z,2.75
2023-03-15T05:35:43.363Z,2.73
2023-03-15T05:37:49.366Z,2.7
2023-03-15T05:39:55.762Z,2.73
2023-03-15T05:42:01.649Z,2.73
2023-03-15T05:44:07.473Z,2.7
2023-03-15T05:46:13.657Z,2.72
2023-03-15T05:48:20.153Z,2.72
2023-03-15T05:50:25.964Z,2.7
2023-03-15T05:52:31.422Z,2.73
2023-03-15T05:54:37.149Z,2.7
2023-03-15T05:56:43.477Z,2.7
2023-03-15T05:58:49.120Z,2.79
2023-03-15T06:00:55.150Z,2.78
2023-03-15T06:03:01.273Z,2.75
2023-03-15T06:05:07.422Z,2.71
2023-03-15T06:07:13.639Z,2.71
2023-03-15T06:09:19.957Z,2.69
2023-03-15T06:11:25.930Z,2.67
2023-03-15T06:13:32.123Z,2.67
2023-03-15T06:15:38.326Z,2.69
2023-03-15T06:17:44.444Z,2.74
2023-03-15T06:19:50.034Z,2.76
2023-03-15T06:21:55.861Z,2.7
2023-03-15T06:24:01.784Z,2.71
2023-03-15T06:26:07.269Z,2.76
2023-03-15T06:28:12.805Z,2.76
2023-03-15T06:30:18.431Z,2.75
2023-03-15T06:32:23.862Z,2.74
2023-03-15T06:34:29.835Z,2.73
2023-03-15T06:36:35.876Z,2.7
2023-03-15T06:38:41.378Z,2.79
2023-03-15T06:40:46.743Z,2.78
2023-03-15T06:42:52.263Z,2.8
2023-03-15T06:44:58.026Z,2.8
2023-03-15T06:47:03.667Z,2.82
2023-03-15T06:49:09.470Z,2.87
2023-03-15T06:51:18.313Z,2.92
2023-03-15T06:53:24.283Z,2.93
2023-03-15T06:55:29.912Z,2.9
2023-03-15T06:57:35.600Z,2.98
2023-03-15T06:59:42.126Z,3.03
2023-03-15T07:01:48.546Z,2.99
2023-03-15T07:03:55.358Z,2.97
2023-03-15T07:06:01.146Z,3.09
2023-03-15T07:08:06.590Z,3.17
2023-03-15T07:10:12.128Z,3.1
2023-03-15T07:12:17.807Z,3.01
2023-03-15T07:14:23.404Z,3.08
2023-03-15T07:16:29.099Z,3.13
2023-03-15T07:18:34.396Z,3.16
2023-03-15T07:20:40.061Z,3.11
2023-03-15T07:22:45.731Z,3.14
2023-03-15T07:24:51.052Z,3.07
2023-03-15T07:26:56.619Z,2.93
2023-03-15T07:29:02.796Z,2.91
2023-03-15T07:31:08.765Z,2.86
2023-03-15T07:33:14.469Z,2.98
2023-03-15T07:35:20.628Z,3.06
2023-03-15T07:37:26.356Z,3.03
2023-03-15T07:39:31.858Z,3.01
2023-03-15T07:41:37.333Z,3.15
2023-03-15T07:43:43.203Z,3.19
2023-03-15T07:45:49.053Z,3.27
2023-03-15T07:47:56.506Z,3.33
2023-03-15T07:50:02.175Z,3.29
2023-03-15T07:52:07.763Z,3.27
2023-03-15T07:54:13.057Z,3.31
2023-03-15T07:56:19.722Z,3.15
2023-03-15T07:58:25.812Z,3.21
2023-03-15T08:00:31.342Z,3.18
2023-03-15T08:02:37.019Z,3.2
2023-03-15T08:04:42.763Z,3.16
2023-03-15T08:06:48.758Z,2.98
2023-03-15T08:08:54.646Z,3.14
2023-03-15T08:11:00.792Z,3.19
2023-03-15T08:13:07.257Z,3.37
2023-03-15T08:15:13.158Z,3.6
2023-03-15T08:17:18.907Z,3.55
2023-03-15T08:19:24.944Z,3.53
2023-03-15T08:21:31.513Z,3.57
2023-03-15T08:23:37.528Z,3.59
2023-03-15T08:25:44.089Z,3.57
2023-03-15T08:27:50.505Z,3.59
2023-03-15T08:29:56.404Z,3.53
2023-03-15T08:32:01.828Z,3.53
2023-03-15T08:34:07.540Z,3.59
2023-03-15T08:36:13.108Z,3.7
2023-03-15T08:38:18.930Z,3.97
2023-03-15T08:40:24.378Z,4.14
2023-03-15T08:42:29.863Z,4.32
2023-03-15T08:44:36.324Z,4.18
2023-03-15T08:46:42.621Z,4.23
2023-03-15T08:48:49.070Z,4.54
2023-03-15T08:50:54.800Z,4.74
2023-03-15T08:53:00.388Z,4.59
2023-03-15T08:55:06.494Z,4.3
2023-03-15T08:57:12.954Z,4.27
2023-03-15T08:59:25.516Z,4.11
2023-03-15T09:01:36.829Z,3.98
2023-03-15T09:03:42.412Z,4.07
2023-03-15T09:05:48.293Z,4.35
2023-03-15T09:07:54.813Z,4.48
2023-03-15T09:10:02.956Z,4.84
2023-03-15T09:12:10.807Z,5.18
2023-03-15T09:14:16.251Z,5.23
2023-03-15T09:16:22.065Z,5.2
2023-03-15T09:18:27.541Z,5.28
2023-03-15T09:20:33.427Z,5.5
2023-03-15T09:22:39.756Z,5.41
2023-03-15T09:24:46.881Z,5.15
2023-03-15T09:26:55.078Z,4.62
2023-03-15T09:29:00.313Z,4.71
2023-03-15T09:31:05.687Z,4.93
2023-03-15T09:33:11.543Z,5.22
2023-03-15T09:35:17.059Z,5.39
2023-03-15T09:37:23.008Z,4.81
2023-03-15T09:39:28.603Z,4.68
2023-03-15T09:41:34.506Z,5.02
2023-03-15T09:43:41.645Z,5.47
2023-03-15T09:45:47.500Z,5.4
2023-03-15T09:47:53.316Z,5.79
2023-03-15T09:49:58.391Z,5.88
2023-03-15T09:52:03.943Z,5.33
2023-03-15T09:54:09.569Z,4.99
2023-03-15T09:56:15.052Z,5.21
2023-03-15T09:58:20.419Z,5.34
2023-03-15T10:00:25.944Z,5.64
2023-03-15T10:02:32.591Z,5.21
2023-03-15T10:04:38.207Z,4.72
2023-03-15T10:06:44.214Z,4.76
2023-03-15T10:08:49.696Z,5.04
2023-03-15T10:10:55.319Z,5.12
2023-03-15T10:13:00.681Z,4.81
2023-03-15T10:15:06.692Z,4.7
2023-03-15T10:17:12.345Z,4.59
2023-03-15T10:19:18.102Z,4.38
2023-03-15T10:21:23.555Z,4.36
2023-03-15T10:23:29.137Z,4.5
2023-03-15T10:25:34.900Z,4.68
2023-03-15T10:27:41.563Z,4.72
2023-03-15T10:29:47.313Z,5.01
2023-03-15T10:31:52.982Z,4.95
2023-03-15T10:33:59.983Z,5.01
2023-03-15T10:36:10.860Z,5.37
2023-03-15T10:38:16.851Z,5.87
2023-03-15T10:40:22.260Z,6.36
2023-03-15T10:42:28.120Z,6.83
2023-03-15T10:44:33.805Z,6.23
2023-03-15T10:46:39.746Z,5.72
2023-03-15T10:48:47.264Z,5.7
2023-03-15T10:50:53.148Z,5.25
2023-03-15T10:53:01.017Z,5.28
2023-03-15T10:55:06.582Z,5.41
2023-03-15T10:57:12.525Z,5.49
2023-03-15T10:59:18.016Z,6.06
2023-03-15T11:01:23.560Z,5.67
2023-03-15T11:03:29.388Z,5.66
2023-03-15T11:05:34.989Z,5.87
2023-03-15T11:07:40.486Z,5.82
2023-03-15T11:09:45.786Z,5.6
2023-03-15T11:11:51.565Z,5.44
2023-03-15T11:16:04.879Z,5.53
2023-03-15T11:18:10.477Z,5.56
2023-03-15T11:20:19.298Z,5.67
2023-03-15T11:22:24.895Z,5.55
2023-03-15T11:24:30.230Z,5.98
2023-03-15T11:26:38.200Z,6.09
2023-03-15T11:28:43.388Z,6.39
2023-03-15T11:30:50.456Z,6.43
2023-03-15T11:32:56.876Z,6.26
2023-03-15T11:35:02.334Z,6.12
2023-03-15T11:37:09.153Z,5.95
2023-03-15T11:39:17.632Z,5.56
2023-03-15T11:41:23.313Z,5.7
2023-03-15T11:43:29.093Z,5.78
2023-03-15T11:45:34.576Z,5.99
2023-03-15T11:47:40.194Z,6.39
2023-03-15T11:49:45.578Z,6.83
2023-03-15T11:51:51.178Z,7.33
2023-03-15T11:53:56.564Z,7.4
2023-03-15T11:56:01.977Z,7.14
2023-03-15T11:58:07.220Z,6.67
2023-03-15T12:00:13.150Z,6.46
2023-03-15T12:02:20.057Z,6.29
2023-03-15T12:04:26.095Z,5.92
2023-03-15T12:06:31.700Z,5.7
2023-03-15T12:08:36.974Z,5.54
2023-03-15T12:10:42.385Z,5.35
2023-03-15T12:12:47.652Z,5.67
2023-03-15T12:14:53.317Z,5.84
2023-03-15T12:16:58.780Z,5.87
2023-03-15T12:19:04.493Z,5.61
2023-03-15T12:21:09.860Z,5.64
2023-03-15T12:23:15.441Z,5.55
2023-03-15T12:25:21.525Z,5.44
2023-03-15T12:27:26.976Z,5.47
2023-03-15T12:29:32.244Z,5.56
2023-03-15T12:31:38.163Z,5.52
2023-03-15T12:33:44.034Z,5.41
2023-03-15T12:35:49.566Z,5.63
2023-03-15T12:37:54.978Z,5.57
2023-03-15T12:40:00.806Z,5.5
2023-03-15T12:42:06.240Z,5.69
2023-03-15T12:44:11.372Z,5.67
2023-03-15T12:46:16.886Z,5.78
2023-03-15T12:48:24.696Z,5.85
2023-03-15T12:50:29.784Z,5.64
2023-03-15T12:52:35.354Z,5.56
2023-03-15T12:54:41.202Z,5.51
2023-03-15T12:56:47.127Z,5.43
2023-03-15T12:58:52.538Z,5.64
2023-03-15T13:00:59.540Z,5.53
2023-03-15T13:03:05.363Z,5.57
2023-03-15T13:05:12.149Z,5.63
2023-03-15T13:07:19.737Z,5.56
2023-03-15T13:09:25.539Z,5.6
2023-03-15T13:11:30.852Z,5.89
2023-03-15T13:13:36.804Z,5.83
2023-03-15T13:15:45.698Z,5.89
2023-03-15T13:17:52.110Z,5.96
2023-03-15T13:19:57.381Z,5.83
2023-03-15T13:22:03.072Z,5.77
2023-03-15T13:24:10.060Z,5.6
2023-03-15T13:26:15.574Z,5.61
2023-03-15T13:28:21.045Z,5.8
2023-03-15T13:30:26.712Z,5.72
2023-03-15T13:32:32.189Z,5.7
2023-03-15T13:34:38.403Z,5.72
2023-03-15T13:36:46.098Z,5.59
2023-03-15T13:38:52.934Z,5.51
2023-03-15T13:40:58.288Z,5.63
2023-03-15T13:43:03.850Z,5.72
2023-03-15T13:45:10.494Z,5.73
2023-03-15T13:47:17.097Z,5.56
2023-03-15T13:49:23.056Z,5.59
2023-03-15T13:51:29.283Z,5.66
2023-03-15T13:53:48.458Z,5.57
2023-03-15T13:55:54.969Z,5.68
2023-03-15T13:58:02.348Z,5.55
2023-03-15T14:00:08.584Z,5.65
2023-03-15T14:02:14.151Z,5.71
2023-03-15T14:04:20.706Z,5.68
2023-03-15T14:06:26.629Z,5.74
2023-03-15T14:08:32.050Z,5.74
2023-03-15T14:10:38.446Z,5.83
2023-03-15T14:12:44.183Z,5.66
2023-03-15T14:14:50.007Z,5.67
2023-03-15T14:17:04.611Z,5.4
2023-03-15T14:19:11.192Z,5.52
2023-03-15T14:21:17.889Z,5.61
2023-03-15T14:23:25.667Z,5.48
2023-03-15T14:25:31.667Z,5.33
2023-03-15T14:27:37.206Z,5.39
2023-03-15T14:29:43.581Z,5.33
2023-03-15T14:31:49.012Z,5.38
2023-03-15T14:33:55.004Z,5.34
2023-03-15T14:36:02.363Z,5.23
2023-03-15T14:38:11.525Z,5.03
2023-03-15T14:40:17.812Z,5.05
2023-03-15T14:42:23.951Z,5.1
2023-03-15T14:44:30.967Z,4.95
2023-03-15T14:46:36.699Z,4.97
2023-03-15T14:48:43.236Z,4.96
2023-03-15T14:50:49.076Z,4.9
2023-03-15T14:52:55.910Z,4.96
2023-03-15T14:55:02.231Z,4.89
2023-03-15T14:57:08.401Z,4.82
2023-03-15T14:59:15.204Z,4.75
2023-03-15T15:01:23.766Z,4.73
2023-03-15T15:03:30.500Z,4.76
2023-03-15T15:05:35.942Z,4.79
2023-03-15T15:07:44.760Z,4.84
2023-03-15T15:09:51.612Z,4.82
2023-03-15T15:11:57.907Z,4.87
2023-03-15T15:14:03.933Z,4.96
2023-03-15T15:16:13.450Z,4.97
2023-03-15T15:18:18.978Z,4.98
2023-03-15T15:20:26.556Z,4.85
2023-03-15T15:22:32.320Z,4.8
2023-03-15T15:24:38.966Z,4.74
2023-03-15T15:26:45.296Z,4.68
2023-03-15T15:28:51.334Z,4.7
2023-03-15T15:30:57.527Z,4.69
2023-03-15T15:33:03.804Z,4.73
2023-03-15T15:35:09.813Z,4.76
2023-03-15T15:37:16.062Z,4.78
2023-03-15T15:39:23.637Z,4.77
2023-03-15T15:41:30.400Z,4.76
2023-03-15T15:43:36.987Z,4.79
2023-03-15T15:45:44.762Z,4.74
2023-03-15T15:47:52.078Z,4.69
2023-03-15T15:49:58.350Z,4.68
2023-03-15T15:52:08.558Z,4.66
2023-03-15T15:54:15.159Z,4.65
2023-03-15T15:56:22.989Z,4.64
2023-03-15T15:58:30.444Z,4.64
2023-03-15T16:00:36.287Z,4.63
2023-03-15T16:02:43.198Z,4.64
2023-03-15T16:04:51.699Z,4.6
2023-03-15T16:07:00.014Z,4.57
2023-03-15T16:09:07.649Z,4.52
2023-03-15T16:11:15.471Z,4.52
2023-03-15T16:13:22.285Z,4.5
2023-03-15T16:15:31.851Z,4.45
2023-03-15T16:17:41.737Z,4.39
2023-03-15T16:19:48.112Z,4.36
2023-03-15T16:21:57.013Z,4.33
2023-03-15T16:24:04.086Z,4.28
2023-03-15T16:26:13.077Z,4.22
2023-03-15T16:28:22.261Z,4.13
2023-03-15T16:30:32.109Z,4
2023-03-15T16:32:44.612Z,3.83
2023-03-15T16:34:54.754Z,3.71
2023-03-15T16:37:03.324Z,3.61
2023-03-15T16:39:14.355Z,3.57
2023-03-15T16:41:25.592Z,3.5
2023-03-15T16:43:39.636Z,3.43
2023-03-15T16:45:50.124Z,3.3
2023-03-15T16:48:01.684Z,3.18
2023-03-15T16:50:10.404Z,3.07
2023-03-15T16:52:19.530Z,3.03
2023-03-15T16:54:40.156Z,2.89
2023-03-15T16:56:51.723Z,2.74
2023-03-15T16:59:00.931Z,2.71
2023-03-15T17:01:11.328Z,2.56
2023-03-15T17:03:28.503Z,2.34
2023-03-15T17:05:40.485Z,2.11
2023-03-15T17:07:50.387Z,1.89
2023-03-15T17:09:58.768Z,1.7
2023-03-15T17:12:09.705Z,1.47
2023-03-15T17:14:19.207Z,1.43
2023-03-15T17:16:32.826Z,1.68
2023-03-15T17:18:46.315Z,1.69
2023-03-15T17:20:54.781Z,1.51
2023-03-15T17:23:04.765Z,1.36
2023-03-15T17:25:29.583Z,1.21
2023-03-15T17:27:41.882Z,1.11
2023-03-15T17:29:54.009Z,0.96
2023-03-15T17:32:03.386Z,0.81
2023-03-15T17:34:14.266Z,0.66
2023-03-15T17:36:27.722Z,0.45
2023-03-15T17:38:36.634Z,0.25
2023-03-15T17:40:46.139Z,0.11
2023-03-15T17:42:57.020Z,0.03
2023-03-15T17:45:08.012Z,-0.06
2023-03-15T17:47:17.260Z,-0.24
2023-03-15T17:49:26.811Z,-0.28
2023-03-15T17:51:34.552Z,-0.36
2023-03-15T17:53:44.605Z,-0.5
2023-03-15T17:55:54.440Z,-0.64
2023-03-15T17:58:06.036Z,-0.75
2023-03-15T18:00:14.864Z,-0.87
2023-03-15T18:02:24.690Z,-0.94
2023-03-15T18:04:36.784Z,-0.9
2023-03-15T18:06:45.202Z,-0.82
2023-03-15T18:08:54.725Z,-0.82
2023-03-15T18:11:04.788Z,-0.82
2023-03-15T18:13:14.040Z,-0.85
2023-03-15T18:15:26.739Z,-0.95
2023-03-15T18:17:34.427Z,-1.05
2023-03-15T18:19:52.831Z,-1.18
2023-03-15T18:22:06.095Z,-1.23
2023-03-15T18:24:16.636Z,-1.27
2023-03-15T18:26:25.148Z,-1.24
2023-03-15T18:28:39.406Z,-1.24
2023-03-15T18:30:49.253Z,-1.37
2023-03-15T18:32:59.417Z,-1.48
2023-03-15T18:35:13.370Z,-1.56
2023-03-15T18:37:29.625Z,-1.7
2023-03-15T18:39:42.053Z,-1.61
2023-03-15T18:41:58.642Z,-1.58
2023-03-15T18:46:38.522Z,-1.54
2023-03-15T18:48:51.554Z,-1.47
2023-03-15T18:51:04.782Z,-1.57
2023-03-15T18:53:17.887Z,-1.64
2023-03-15T18:55:33.466Z,-1.64
2023-03-15T18:57:44.964Z,-1.66
2023-03-15T18:59:54.403Z,-1.68
2023-03-15T19:02:03.409Z,-1.7
2023-03-15T19:04:19.060Z,-1.75
2023-03-15T19:06:37.025Z,-1.82
2023-03-15T19:08:48.213Z,-1.89
2023-03-15T19:13:12.534Z,-2.05
2023-03-15T19:15:26.989Z,-2.06
2023-03-15T19:17:40.243Z,-2.1
2023-03-15T19:19:51.820Z,-2.1
2023-03-15T19:22:01.269Z,-2.16
2023-03-15T19:24:16.255Z,-2.21
2023-03-15T19:26:35.020Z,-2.25
2023-03-15T19:28:55.782Z,-2.37
2023-03-15T19:31:07.775Z,-2.58
2023-03-15T19:33:24.585Z,-2.77
2023-03-15T19:35:43.935Z,-3.01
2023-03-15T19:37:56.641Z,-3.15
2023-03-15T19:40:11.350Z,-2.95
2023-03-15T19:42:25.700Z,-2.81
2023-03-15T19:44:36.861Z,-2.76
2023-03-15T19:46:51.986Z,-2.73
2023-03-15T19:49:02.506Z,-2.69
2023-03-15T19:51:19.526Z,-2.64
2023-03-15T19:53:41.835Z,-2.58
2023-03-15T19:55:56.754Z,-2.59
2023-03-15T19:58:11.913Z,-2.58
2023-03-15T20:00:25.870Z,-2.51
2023-03-15T20:02:39.267Z,-2.39
2023-03-15T20:04:52.745Z,-2.33
2023-03-15T20:07:05.371Z,-2.29
2023-03-15T20:09:19.822Z,-2.24
2023-03-15T20:11:31.015Z,-2.19
2023-03-15T20:13:56.918Z,-2.14
2023-03-15T20:16:10.674Z,-2.17
2023-03-15T20:20:36.823Z,-2.19
2023-03-15T20:22:49.675Z,-2.19
2023-03-15T20:25:05.134Z,-2.19
2023-03-15T20:27:19.280Z,-2.17
2023-03-15T20:29:43.301Z,-2.16
2023-03-15T20:31:54.030Z,-2.13
2023-03-15T20:34:05.018Z,-2.12
2023-03-15T20:36:20.274Z,-2.17
2023-03-15T20:38:40.576Z,-2.19
2023-03-15T20:40:55.863Z,-2.2
2023-03-15T20:43:06.116Z,-2.29
2023-03-15T20:45:23.530Z,-2.29
2023-03-15T20:47:37.267Z,-2.38
2023-03-15T20:49:50.251Z,-2.43
2023-03-15T20:52:00.398Z,-2.43
2023-03-15T20:54:10.871Z,-2.45
2023-03-15T20:56:18.178Z,-2.55
2023-03-15T20:58:28.088Z,-2.61
2023-03-15T21:00:46.318Z,-2.68
2023-03-15T21:02:58.494Z,-2.74
2023-03-15T21:05:09.221Z,-2.75
2023-03-15T21:07:18.661Z,-2.82
2023-03-15T21:09:29.738Z,-2.84
2023-03-15T21:11:42.424Z,-2.92
2023-03-15T21:13:52.916Z,-2.97
2023-03-15T21:16:03.683Z,-3.01
2023-03-15T21:18:14.764Z,-3
2023-03-15T21:20:23.758Z,-2.92
2023-03-15T21:22:33.134Z,-2.85
2023-03-15T21:24:54.678Z,-2.78
2023-03-15T21:27:05.118Z,-2.73
2023-03-15T21:29:13.558Z,-2.68
2023-03-15T21:31:24.921Z,-2.65
2023-03-15T21:33:33.700Z,-2.56
2023-03-15T21:35:43.823Z,-2.47
2023-03-15T21:37:53.385Z,-2.43
2023-03-15T21:40:02.985Z,-2.32
2023-03-15T21:42:14.448Z,-2.3
2023-03-15T21:44:21.161Z,-2.27
2023-03-15T21:46:29.632Z,-2.24
2023-03-15T21:48:38.341Z,-2.17
2023-03-15T21:50:47.563Z,-2.15
2023-03-15T21:52:53.585Z,-2.06
2023-03-15T21:55:00.601Z,-2.02
2023-03-15T21:57:06.712Z,-1.95
2023-03-15T21:59:13.467Z,-1.8
2023-03-15T22:01:19.392Z,-1.78
2023-03-15T22:03:27.400Z,-1.71
2023-03-15T22:05:33.834Z,-1.68
2023-03-15T22:07:39.590Z,-1.59
2023-03-15T22:09:45.283Z,-1.55
2023-03-15T22:11:52.274Z,-1.58
2023-03-15T22:13:58.149Z,-1.56
2023-03-15T22:16:03.750Z,-1.45
2023-03-15T22:18:09.263Z,-1.1
2023-03-15T22:20:14.862Z,-1.05
2023-03-15T22:22:20.632Z,-0.92
2023-03-15T22:24:28.362Z,-0.95
2023-03-15T22:26:34.100Z,-0.86
2023-03-15T22:28:40.222Z,-0.78
2023-03-15T22:30:46.185Z,-0.6
2023-03-15T22:32:52.230Z,-0.48
2023-03-15T22:34:58.224Z,-0.5
2023-03-15T22:37:04.140Z,-0.64
2023-03-15T22:39:09.948Z,-0.58
2023-03-15T22:41:15.344Z,-0.44
2023-03-15T22:43:21.042Z,-0.31
2023-03-15T22:45:27.650Z,-0.27
2023-03-15T22:47:33.260Z,-0.32
2023-03-15T22:49:39.485Z,-0.22
2023-03-15T22:51:45.402Z,-0.2
2023-03-15T22:53:51.990Z,-0.14
2023-03-15T22:55:57.418Z,-0.1
2023-03-15T22:58:03.197Z,-0.16
2023-03-15T23:00:09.258Z,-0.12
2023-03-15T23:02:15.799Z,-0.17
2023-03-15T23:04:21.525Z,-0.15
2023-03-15T23:06:27.216Z,-0.18
2023-03-15T23:08:33.182Z,-0.33
2023-03-15T23:10:38.768Z,-0.48
2023-03-15T23:12:44.192Z,-0.5
2023-03-15T23:14:50.894Z,-0.41
2023-03-15T23:16:56.178Z,-0.52
2023-03-15T23:19:04.064Z,-0.58
2023-03-15T23:21:09.975Z,-0.72
2023-03-15T23:23:15.628Z,-0.87
2023-03-15T23:25:22.006Z,-0.98
2023-03-15T23:27:28.526Z,-1
2023-03-15T23:29:43.895Z,-1.05
2023-03-15T23:31:59.765Z,-1.2
2023-03-15T23:34:05.371Z,-1.33
2023-03-15T23:36:10.991Z,-1.27
2023-03-15T23:38:17.182Z,-1.26
2023-03-15T23:40:22.721Z,-1.27
2023-03-15T23:42:29.900Z,-1.4
2023-03-15T23:44:36.680Z,-1.45
2023-03-15T23:46:42.448Z,-1.52
2023-03-15T23:48:47.993Z,-1.57
2023-03-15T23:50:53.459Z,-1.63
2023-03-15T23:52:59.221Z,-1.68
2023-03-15T23:55:04.940Z,-1.77
2023-03-15T23:57:10.440Z,-1.85
2023-03-15T23:59:16.566Z,-1.98
